Nearby METAR Reports

 

KSNK - Snyder/Winston, Texas, USA
Distance from station: SSE 25mi, 41km
Updated: Sun, 18-Aug-2019 6:15pm CDT
Clear
Clear
 Wind from SE
Wind: SE 17 mph , 28 km/h, Gust: 23 mph , 37 km/h
Temperature: 106°F , 41°C
Dew Point: 55°F , 13°C
Humidity: 19%
Barometer: 29.83 inHg , 1010.2 hPa
Clouds: Clear
Visibility: 10 miles , 16 km
2019/08/18 23:15 KSNK 182315Z AUTO 14015G20KT 10SM CLR 41/13 A2983 RMK AO2 T04050130
KSWW - Sweetwater, Texas, USA
Distance from station: SE 56mi, 90km
Updated: Sun, 18-Aug-2019 6:15pm CDT
Clear
Clear
 Wind from SE
Wind: SE 12 mph , 19 km/h, Gust: 18 mph , 30 km/h
Temperature: 102°F , 39°C
Dew Point: 54°F , 12°C
Humidity: 20%
Barometer: 29.88 inHg , 1011.9 hPa
Clouds: Clear
Visibility: 10 miles , 16 km
2019/08/18 23:15 KSWW 182315Z AUTO 14010G16KT 10SM CLR 39/12 A2988 RMK AO2 T03930117
 
KLBB - Lubbock, Texas, USA
Distance from station: NW 59mi, 94km
Updated: Sun, 18-Aug-2019 5:53pm CDT
Mostly cloudy
Mostly cloudy
 Wind from SW
Wind: SW 13 mph , 20 km/h, Gust: 18 mph , 30 km/h
Temperature: 104°F , 40°C
Dew Point: 54°F , 12°C
Humidity: 19%
Barometer: 29.87 inHg , 1011.5 hPa
Clouds: Mostly cloudy
Visibility: 10 miles , 16 km
Cloud details: Partly cloudy 10000 ft
Partly cloudy 15000 ft
Mostly cloudy 25000 ft
2019/08/18 22:53 KLBB 182253Z 23011G16KT 10SM SCT100TCU SCT150 BKN250 40/12 A2987 RMK AO2 SLP046 CB DSNT NE-E AND W MOV E TCU S AND W TCU DSNT NE-SE AND W T04000117
KPVW - Plainview, Texas, USA
Distance from station: NNW 85mi, 137km
Updated: Sun, 18-Aug-2019 6:15pm CDT
Clear
Clear
 Wind from WSW
Wind: WSW 9 mph , 15 km/h
Temperature: 100°F , 38°C
Dew Point: 50°F , 10°C
Humidity: 18%
Barometer: 29.88 inHg , 1011.9 hPa
Clouds: Clear
Visibility: 10 miles , 16 km
2019/08/18 23:15 KPVW 182315Z AUTO 24008KT 10SM CLR 38/10 A2988 RMK AO2 T03770102
 
KDYS - Dyess Afb/Abilen, Texas, USA
Distance from station: ESE 88mi, 141km
Updated: Sun, 18-Aug-2019 6:09pm CDT
Clear
Clear
 Wind from S
Wind: S 12 mph , 19 km/h
Temperature: 104°F , 40°C
Dew Point: 55°F , 13°C
Humidity: 20%
Barometer: 29.81 inHg , 1009.5 hPa
Clouds: Clear
Visibility: 10 miles , 16 km
2019/08/18 23:09 KDYS 182309Z AUTO 17010KT 10SM CLR 40/13 A2981 RMK AO2 WSHFT 02 SLP034 PNO FZRANO $
KGNC - Seminole, Texas, USA
Distance from station: WSW 89mi, 144km
Updated: Sun, 18-Aug-2019 6:15pm CDT
Clear
Clear
 Wind from SSE
Wind: SSE 10 mph , 17 km/h
Temperature: 100°F , 38°C
Dew Point: 46°F , 8°C
Humidity: 16%
Barometer: 29.92 inHg , 1013.2 hPa
Clouds: Clear
Visibility: 10 miles , 16 km
2019/08/18 23:15 KGNC 182315Z AUTO 16009KT 10SM CLR 38/08 A2992 RMK AO2 T03810081
 
KE11 - Andrews, Texas, USA
Distance from station: WSW 93mi, 149km
Updated: Sun, 18-Aug-2019 6:15pm CDT
Clear
Clear
 Wind from S
Wind: S 7 mph , 11 km/h
Temperature: 99°F , 37°C
Dew Point: 52°F , 11°C
Humidity: 21%
Barometer: 29.87 inHg , 1011.5 hPa
Clouds: Clear
Visibility: 10 miles , 16 km
2019/08/18 23:15 KE11 182315Z AUTO 19006KT 10SM CLR 37/11 A2987 RMK AO2 T03730105
KABI - Abilene, Texas, USA
Distance from station: ESE 96mi, 154km
Updated: Sun, 18-Aug-2019 5:52pm CDT
Clear
Clear
 Wind from SSE
Wind: SSE 16 mph , 26 km/h
Temperature: 104°F , 40°C
Dew Point: 57°F , 14°C
Humidity: 21%
Barometer: 29.83 inHg , 1010.2 hPa
Clouds: Clear
Visibility: 10 miles , 16 km
2019/08/18 22:52 KABI 182252Z 15014KT 10SM CLR 40/14 A2983 RMK AO2 SLP067 T04000139
 
KMAF - Midland, Texas, USA
Distance from station: SW 96mi, 154km
Updated: Sun, 18-Aug-2019 5:53pm CDT
Clear
Clear
 Wind from SSE
Wind: SSE 12 mph , 19 km/h
Temperature: 104°F , 40°C
Dew Point: 57°F , 14°C
Humidity: 21%
Barometer: 29.84 inHg , 1010.5 hPa
Clouds: Clear
Visibility: 10 miles , 16 km
2019/08/18 22:53 KMAF 182253Z 16010KT 10SM CLR 40/14 A2984 RMK AO2 LTG DSNT SW SLP046 T04000144
KCDS - Childress, Texas, USA
Distance from station: NNE 110mi, 177km
Updated: Sun, 18-Aug-2019 6:21pm CDT
Partly cloudy
Partly cloudy
 Wind from SW
Wind: SW 3 mph , 6 km/h
Temperature: 91°F , 33°C
Heat Index: 94°F , 34°C
Dew Point: 66°F , 19°C
Humidity: 44%
Barometer: 29.79 inHg , 1008.8 hPa
Clouds: Partly cloudy
Visibility: 10 miles , 16 km
Cloud details: Partly cloudy 10000 ft
2019/08/18 23:21 KCDS 182321Z AUTO 22003KT 10SM SCT100 33/19 A2979 RMK AO2 LTG DSNT SW-NW RAE17 TSE15 P0000 T03330189
 
KSJT - San Angelo, Texas, USA
Distance from station: SSE 121mi, 194km
Updated: Sun, 18-Aug-2019 5:51pm CDT
Clear
Clear
 Wind from ESE
Wind: ESE 12 mph , 19 km/h, Gust: 16 mph , 26 km/h
Temperature: 106°F , 41°C
Dew Point: 55°F , 13°C
Humidity: 19%
Barometer: 29.81 inHg , 1009.5 hPa
Clouds: Clear
Visibility: 10 miles , 16 km
2019/08/18 22:51 KSJT 182251Z 12010G14KT 10SM CLR 41/13 A2981 RMK AO2 SLP063 T04060133
KHOB - Hobbs/Lea Co., New Mexico, USA
Distance from station: WSW 122mi, 196km
Updated: Sun, 18-Aug-2019 5:50pm CDT
Overcast
Overcast
 Wind from varies
Wind: varies 5 mph , 7 km/h
Temperature: 100°F , 38°C
Dew Point: 41°F , 5°C
Humidity: 13%
Barometer: 29.91 inHg , 1012.9 hPa
Clouds: Overcast
Visibility: 10 miles , 16 km
Cloud details: Overcast 12000 ft
2019/08/18 22:50 KHOB 182250Z VRB04KT 10SM OVC120 38/05 A2991
 
KCOM - Coleman Muni, Texas, USA
Distance from station: SE 131mi, 212km
Updated: Sun, 18-Aug-2019 6:15pm CDT
Clear
Clear
 Wind from SE
Wind: SE 8 mph , 13 km/h, Gust: 13 mph , 20 km/h
Temperature: 102°F , 39°C
Dew Point: 55°F , 13°C
Humidity: 21%
Barometer: 29.85 inHg , 1010.8 hPa
Clouds: Clear
Visibility: 10 miles , 16 km
2019/08/18 23:15 KCOM 182315Z AUTO 13007G11KT 10SM CLR 39/13 A2985 RMK AO2 T03880128
KBKD - Breckenridge, Texas, USA
Distance from station: E 134mi, 215km
Updated: Sun, 18-Aug-2019 6:15pm CDT
Clear
Clear
 Wind from SSE
Wind: SSE 13 mph , 20 km/h, Gust: 18 mph , 30 km/h
Temperature: 102°F , 39°C
Dew Point: 59°F , 15°C
Humidity: 24%
Barometer: 29.81 inHg , 1009.5 hPa
Clouds: Clear
Visibility: 7 miles , 11 km
2019/08/18 23:15 KBKD 182315Z AUTO 15011G16KT 7SM CLR 39/15 A2981 RMK AO2 T03920150
 
KF05 - Vernon Wilbarger, Texas, USA
Distance from station: NE 137mi, 220km
Updated: Sun, 18-Aug-2019 6:15pm CDT
Clear
Clear
 Wind from SSE
Wind: SSE 16 mph , 26 km/h, Gust: 21 mph , 33 km/h
Temperature: 104°F , 40°C
Dew Point: 61°F , 16°C
Humidity: 24%
Barometer: 29.76 inHg , 1007.8 hPa
Clouds: Clear
Visibility: 10 miles , 16 km
2019/08/18 23:15 KF05 182315Z AUTO 16014G18KT 10SM CLR 40/16 A2976 RMK AO1 T04010163